sensor_id;sensor_type;location;lat;lon;timestamp;P1;durP1;ratioP1;P2;durP2;ratioP2
27163;SDS011;14685;50.618;7.024;2023-11-21T00:01:33;9.38;;;7.53;;
27163;SDS011;14685;50.618;7.024;2023-11-21T00:04:00;17.48;;;9.00;;
27163;SDS011;14685;50.618;7.024;2023-11-21T00:06:28;13.85;;;9.52;;
27163;SDS011;14685;50.618;7.024;2023-11-21T00:08:56;15.93;;;10.18;;
27163;SDS011;14685;50.618;7.024;2023-11-21T00:11:23;16.65;;;10.25;;
27163;SDS011;14685;50.618;7.024;2023-11-21T00:13:51;18.05;;;10.75;;
27163;SDS011;14685;50.618;7.024;2023-11-21T00:16:18;21.30;;;12.35;;
27163;SDS011;14685;50.618;7.024;2023-11-21T00:18:45;19.70;;;11.65;;
27163;SDS011;14685;50.618;7.024;2023-11-21T00:21:13;16.13;;;10.65;;
27163;SDS011;14685;50.618;7.024;2023-11-21T00:23:39;15.82;;;11.13;;
27163;SDS011;14685;50.618;7.024;2023-11-21T00:26:07;20.27;;;11.13;;
27163;SDS011;14685;50.618;7.024;2023-11-21T00:28:33;17.92;;;10.65;;
27163;SDS011;14685;50.618;7.024;2023-11-21T00:31:00;19.38;;;10.80;;
27163;SDS011;14685;50.618;7.024;2023-11-21T00:33:27;20.85;;;12.02;;
27163;SDS011;14685;50.618;7.024;2023-11-21T00:35:54;21.60;;;12.80;;
27163;SDS011;14685;50.618;7.024;2023-11-21T00:38:21;21.35;;;12.38;;
27163;SDS011;14685;50.618;7.024;2023-11-21T00:40:48;17.08;;;11.40;;
27163;SDS011;14685;50.618;7.024;2023-11-21T00:43:15;18.45;;;11.02;;
27163;SDS011;14685;50.618;7.024;2023-11-21T00:45:42;16.02;;;11.23;;
27163;SDS011;14685;50.618;7.024;2023-11-21T00:48:09;21.25;;;11.80;;
27163;SDS011;14685;50.618;7.024;2023-11-21T00:50:36;17.73;;;11.32;;
27163;SDS011;14685;50.618;7.024;2023-11-21T00:53:03;17.52;;;10.35;;
27163;SDS011;14685;50.618;7.024;2023-11-21T00:55:32;20.60;;;10.88;;
27163;SDS011;14685;50.618;7.024;2023-11-21T00:58:00;20.27;;;11.65;;
27163;SDS011;14685;50.618;7.024;2023-11-21T01:00:29;19.58;;;10.98;;
27163;SDS011;14685;50.618;7.024;2023-11-21T01:02:56;18.90;;;11.85;;
27163;SDS011;14685;50.618;7.024;2023-11-21T01:05:23;19.55;;;11.05;;
27163;SDS011;14685;50.618;7.024;2023-11-21T01:07:50;17.13;;;11.25;;
27163;SDS011;14685;50.618;7.024;2023-11-21T01:10:18;20.02;;;12.45;;
27163;SDS011;14685;50.618;7.024;2023-11-21T01:12:45;22.65;;;12.68;;
27163;SDS011;14685;50.618;7.024;2023-11-21T01:15:11;21.05;;;12.32;;
27163;SDS011;14685;50.618;7.024;2023-11-21T01:17:39;21.30;;;13.73;;
27163;SDS011;14685;50.618;7.024;2023-11-21T01:20:07;18.83;;;12.18;;
27163;SDS011;14685;50.618;7.024;2023-11-21T01:22:40;23.02;;;13.98;;
27163;SDS011;14685;50.618;7.024;2023-11-21T01:25:08;24.20;;;13.95;;
27163;SDS011;14685;50.618;7.024;2023-11-21T01:27:38;20.80;;;13.82;;
27163;SDS011;14685;50.618;7.024;2023-11-21T01:30:05;23.88;;;14.70;;
27163;SDS011;14685;50.618;7.024;2023-11-21T01:32:34;20.45;;;13.38;;
27163;SDS011;14685;50.618;7.024;2023-11-21T01:35:01;22.30;;;13.57;;
27163;SDS011;14685;50.618;7.024;2023-11-21T01:37:28;19.70;;;13.43;;
27163;SDS011;14685;50.618;7.024;2023-11-21T01:39:57;19.35;;;13.30;;
27163;SDS011;14685;50.618;7.024;2023-11-21T01:42:25;23.08;;;14.63;;
27163;SDS011;14685;50.618;7.024;2023-11-21T01:44:55;23.98;;;14.55;;
27163;SDS011;14685;50.618;7.024;2023-11-21T01:47:22;24.20;;;15.13;;
27163;SDS011;14685;50.618;7.024;2023-11-21T01:49:49;26.40;;;16.35;;
27163;SDS011;14685;50.618;7.024;2023-11-21T01:52:16;28.70;;;17.52;;
27163;SDS011;14685;50.618;7.024;2023-11-21T01:54:44;25.73;;;16.13;;
27163;SDS011;14685;50.618;7.024;2023-11-21T01:57:11;26.35;;;17.13;;
27163;SDS011;14685;50.618;7.024;2023-11-21T01:59:38;26.80;;;16.88;;
27163;SDS011;14685;50.618;7.024;2023-11-21T02:02:07;30.48;;;18.10;;
27163;SDS011;14685;50.618;7.024;2023-11-21T02:04:36;30.27;;;17.48;;
27163;SDS011;14685;50.618;7.024;2023-11-21T02:07:04;31.77;;;18.73;;
27163;SDS011;14685;50.618;7.024;2023-11-21T02:09:31;31.10;;;18.38;;
27163;SDS011;14685;50.618;7.024;2023-11-21T02:12:00;31.38;;;17.48;;
27163;SDS011;14685;50.618;7.024;2023-11-21T02:14:27;37.80;;;19.58;;
27163;SDS011;14685;50.618;7.024;2023-11-21T02:16:55;34.55;;;18.65;;
27163;SDS011;14685;50.618;7.024;2023-11-21T02:19:24;36.75;;;20.50;;
27163;SDS011;14685;50.618;7.024;2023-11-21T02:21:57;36.35;;;19.90;;
27163;SDS011;14685;50.618;7.024;2023-11-21T02:24:29;36.35;;;19.45;;
27163;SDS011;14685;50.618;7.024;2023-11-21T02:26:57;31.17;;;17.67;;
27163;SDS011;14685;50.618;7.024;2023-11-21T02:29:24;28.52;;;16.27;;
27163;SDS011;14685;50.618;7.024;2023-11-21T02:31:54;30.05;;;17.00;;
27163;SDS011;14685;50.618;7.024;2023-11-21T02:34:22;32.33;;;17.85;;
27163;SDS011;14685;50.618;7.024;2023-11-21T02:36:51;30.45;;;17.80;;
27163;SDS011;14685;50.618;7.024;2023-11-21T02:39:19;29.67;;;17.52;;
27163;SDS011;14685;50.618;7.024;2023-11-21T02:41:48;25.98;;;15.63;;
27163;SDS011;14685;50.618;7.024;2023-11-21T02:44:16;25.83;;;15.05;;
27163;SDS011;14685;50.618;7.024;2023-11-21T02:46:43;27.75;;;16.23;;
27163;SDS011;14685;50.618;7.024;2023-11-21T02:49:10;27.20;;;15.95;;
27163;SDS011;14685;50.618;7.024;2023-11-21T02:51:38;25.60;;;15.57;;
27163;SDS011;14685;50.618;7.024;2023-11-21T02:54:05;29.50;;;17.00;;
27163;SDS011;14685;50.618;7.024;2023-11-21T02:56:33;26.90;;;16.65;;
27163;SDS011;14685;50.618;7.024;2023-11-21T02:59:00;25.08;;;15.75;;
27163;SDS011;14685;50.618;7.024;2023-11-21T03:01:27;24.92;;;14.95;;
27163;SDS011;14685;50.618;7.024;2023-11-21T03:03:54;21.05;;;14.70;;
27163;SDS011;14685;50.618;7.024;2023-11-21T03:06:25;23.75;;;14.88;;
27163;SDS011;14685;50.618;7.024;2023-11-21T03:08:52;25.17;;;15.82;;
27163;SDS011;14685;50.618;7.024;2023-11-21T03:11:19;21.48;;;14.85;;
27163;SDS011;14685;50.618;7.024;2023-11-21T03:13:45;26.65;;;15.32;;
27163;SDS011;14685;50.618;7.024;2023-11-21T03:16:13;22.13;;;15.13;;
27163;SDS011;14685;50.618;7.024;2023-11-21T03:18:40;22.95;;;16.27;;
27163;SDS011;14685;50.618;7.024;2023-11-21T03:21:07;21.85;;;14.35;;
27163;SDS011;14685;50.618;7.024;2023-11-21T03:23:35;25.73;;;15.98;;
27163;SDS011;14685;50.618;7.024;2023-11-21T03:26:03;26.05;;;16.55;;
27163;SDS011;14685;50.618;7.024;2023-11-21T03:28:30;26.35;;;15.45;;
27163;SDS011;14685;50.618;7.024;2023-11-21T03:30:58;25.77;;;16.42;;
27163;SDS011;14685;50.618;7.024;2023-11-21T03:33:25;24.35;;;16.42;;
27163;SDS011;14685;50.618;7.024;2023-11-21T03:35:52;24.13;;;17.27;;
27163;SDS011;14685;50.618;7.024;2023-11-21T03:38:20;19.65;;;14.05;;
27163;SDS011;14685;50.618;7.024;2023-11-21T03:40:47;23.60;;;15.45;;
27163;SDS011;14685;50.618;7.024;2023-11-21T03:43:14;24.02;;;16.17;;
27163;SDS011;14685;50.618;7.024;2023-11-21T03:45:41;24.65;;;16.48;;
27163;SDS011;14685;50.618;7.024;2023-11-21T03:48:08;22.15;;;14.50;;
27163;SDS011;14685;50.618;7.024;2023-11-21T03:50:35;18.83;;;14.18;;
27163;SDS011;14685;50.618;7.024;2023-11-21T03:53:02;21.05;;;14.10;;
27163;SDS011;14685;50.618;7.024;2023-11-21T03:55:30;20.52;;;12.68;;
27163;SDS011;14685;50.618;7.024;2023-11-21T03:57:58;18.20;;;12.52;;
27163;SDS011;14685;50.618;7.024;2023-11-21T04:00:25;20.95;;;14.50;;
27163;SDS011;14685;50.618;7.024;2023-11-21T04:02:55;23.08;;;15.07;;
27163;SDS011;14685;50.618;7.024;2023-11-21T04:05:24;21.63;;;13.30;;
27163;SDS011;14685;50.618;7.024;2023-11-21T04:07:51;21.95;;;14.18;;
27163;SDS011;14685;50.618;7.024;2023-11-21T04:10:18;22.73;;;15.07;;
27163;SDS011;14685;50.618;7.024;2023-11-21T04:12:46;30.30;;;17.58;;
27163;SDS011;14685;50.618;7.024;2023-11-21T04:15:13;34.10;;;19.77;;
27163;SDS011;14685;50.618;7.024;2023-11-21T04:17:41;38.08;;;22.52;;
27163;SDS011;14685;50.618;7.024;2023-11-21T04:20:08;36.30;;;22.27;;
27163;SDS011;14685;50.618;7.024;2023-11-21T04:22:40;38.90;;;23.20;;
27163;SDS011;14685;50.618;7.024;2023-11-21T04:25:11;33.60;;;21.60;;
27163;SDS011;14685;50.618;7.024;2023-11-21T04:27:40;36.90;;;22.65;;
27163;SDS011;14685;50.618;7.024;2023-11-21T04:30:10;33.45;;;21.77;;
27163;SDS011;14685;50.618;7.024;2023-11-21T04:32:39;36.08;;;22.42;;
27163;SDS011;14685;50.618;7.024;2023-11-21T04:35:06;37.63;;;20.15;;
27163;SDS011;14685;50.618;7.024;2023-11-21T04:37:35;34.00;;;20.05;;
27163;SDS011;14685;50.618;7.024;2023-11-21T04:40:02;33.92;;;19.90;;
27163;SDS011;14685;50.618;7.024;2023-11-21T04:42:36;31.42;;;20.48;;
27163;SDS011;14685;50.618;7.024;2023-11-21T04:45:07;33.58;;;19.30;;
27163;SDS011;14685;50.618;7.024;2023-11-21T04:47:36;33.25;;;21.13;;
27163;SDS011;14685;50.618;7.024;2023-11-21T04:50:03;37.47;;;20.50;;
27163;SDS011;14685;50.618;7.024;2023-11-21T04:52:30;36.25;;;20.05;;
27163;SDS011;14685;50.618;7.024;2023-11-21T04:54:59;38.15;;;20.70;;
27163;SDS011;14685;50.618;7.024;2023-11-21T04:57:27;33.20;;;19.15;;
27163;SDS011;14685;50.618;7.024;2023-11-21T04:59:57;33.63;;;20.00;;
27163;SDS011;14685;50.618;7.024;2023-11-21T05:02:24;35.35;;;20.17;;
27163;SDS011;14685;50.618;7.024;2023-11-21T05:05:01;26.15;;;17.42;;
27163;SDS011;14685;50.618;7.024;2023-11-21T05:07:29;36.13;;;19.02;;
27163;SDS011;14685;50.618;7.024;2023-11-21T05:09:58;30.42;;;18.30;;
27163;SDS011;14685;50.618;7.024;2023-11-21T05:12:25;34.22;;;17.30;;
27163;SDS011;14685;50.618;7.024;2023-11-21T05:14:52;33.47;;;17.90;;
27163;SDS011;14685;50.618;7.024;2023-11-21T05:17:19;25.05;;;16.15;;
27163;SDS011;14685;50.618;7.024;2023-11-21T05:19:46;33.15;;;19.20;;
27163;SDS011;14685;50.618;7.024;2023-11-21T05:22:15;29.90;;;17.95;;
27163;SDS011;14685;50.618;7.024;2023-11-21T05:24:42;28.60;;;16.80;;
27163;SDS011;14685;50.618;7.024;2023-11-21T05:27:09;32.60;;;17.35;;
27163;SDS011;14685;50.618;7.024;2023-11-21T05:29:36;27.08;;;12.40;;
27163;SDS011;14685;50.618;7.024;2023-11-21T05:32:05;33.30;;;17.77;;
27163;SDS011;14685;50.618;7.024;2023-11-21T05:34:32;28.58;;;17.15;;
27163;SDS011;14685;50.618;7.024;2023-11-21T05:36:59;29.38;;;17.27;;
27163;SDS011;14685;50.618;7.024;2023-11-21T05:39:26;28.02;;;15.55;;
27163;SDS011;14685;50.618;7.024;2023-11-21T05:41:55;30.98;;;17.73;;
27163;SDS011;14685;50.618;7.024;2023-11-21T05:44:25;29.23;;;16.98;;
27163;SDS011;14685;50.618;7.024;2023-11-21T05:46:55;25.67;;;17.42;;
27163;SDS011;14685;50.618;7.024;2023-11-21T05:49:25;28.70;;;15.43;;
27163;SDS011;14685;50.618;7.024;2023-11-21T05:51:55;27.05;;;15.63;;
27163;SDS011;14685;50.618;7.024;2023-11-21T05:54:25;20.65;;;9.85;;
27163;SDS011;14685;50.618;7.024;2023-11-21T05:56:52;20.83;;;14.40;;
27163;SDS011;14685;50.618;7.024;2023-11-21T05:59:19;23.02;;;14.18;;
27163;SDS011;14685;50.618;7.024;2023-11-21T06:01:49;26.05;;;15.48;;
27163;SDS011;14685;50.618;7.024;2023-11-21T06:04:17;24.83;;;13.85;;
27163;SDS011;14685;50.618;7.024;2023-11-21T06:06:45;21.90;;;14.07;;
27163;SDS011;14685;50.618;7.024;2023-11-21T06:09:12;27.52;;;14.82;;
27163;SDS011;14685;50.618;7.024;2023-11-21T06:11:39;20.67;;;13.60;;
27163;SDS011;14685;50.618;7.024;2023-11-21T06:14:08;26.20;;;13.98;;
27163;SDS011;14685;50.618;7.024;2023-11-21T06:16:36;25.95;;;14.55;;
27163;SDS011;14685;50.618;7.024;2023-11-21T06:19:03;21.30;;;13.07;;
27163;SDS011;14685;50.618;7.024;2023-11-21T06:21:33;20.83;;;12.88;;
27163;SDS011;14685;50.618;7.024;2023-11-21T06:24:01;26.00;;;14.27;;
27163;SDS011;14685;50.618;7.024;2023-11-21T06:26:28;26.85;;;14.95;;
27163;SDS011;14685;50.618;7.024;2023-11-21T06:28:56;27.67;;;16.15;;
27163;SDS011;14685;50.618;7.024;2023-11-21T06:31:24;23.55;;;13.93;;
27163;SDS011;14685;50.618;7.024;2023-11-21T06:33:51;26.98;;;14.32;;
27163;SDS011;14685;50.618;7.024;2023-11-21T06:36:19;24.08;;;14.88;;
27163;SDS011;14685;50.618;7.024;2023-11-21T06:38:47;25.13;;;15.23;;
27163;SDS011;14685;50.618;7.024;2023-11-21T06:41:13;22.55;;;15.48;;
27163;SDS011;14685;50.618;7.024;2023-11-21T06:43:42;23.38;;;15.60;;
27163;SDS011;14685;50.618;7.024;2023-11-21T06:46:13;24.67;;;16.02;;
27163;SDS011;14685;50.618;7.024;2023-11-21T06:48:44;25.55;;;15.13;;
27163;SDS011;14685;50.618;7.024;2023-11-21T06:51:15;27.05;;;15.07;;
27163;SDS011;14685;50.618;7.024;2023-11-21T06:53:42;22.92;;;14.48;;
27163;SDS011;14685;50.618;7.024;2023-11-21T06:56:15;28.10;;;16.92;;
27163;SDS011;14685;50.618;7.024;2023-11-21T06:58:46;32.38;;;18.35;;
27163;SDS011;14685;50.618;7.024;2023-11-21T07:01:13;26.50;;;16.95;;
27163;SDS011;14685;50.618;7.024;2023-11-21T07:03:40;30.08;;;17.85;;
27163;SDS011;14685;50.618;7.024;2023-11-21T07:06:08;27.65;;;16.15;;
27163;SDS011;14685;50.618;7.024;2023-11-21T07:08:37;26.10;;;15.00;;
27163;SDS011;14685;50.618;7.024;2023-11-21T07:11:04;34.00;;;15.90;;
27163;SDS011;14685;50.618;7.024;2023-11-21T07:13:31;26.45;;;16.27;;
27163;SDS011;14685;50.618;7.024;2023-11-21T07:15:59;28.88;;;16.58;;
27163;SDS011;14685;50.618;7.024;2023-11-21T07:18:26;27.20;;;16.92;;
27163;SDS011;14685;50.618;7.024;2023-11-21T07:20:54;26.88;;;15.90;;
27163;SDS011;14685;50.618;7.024;2023-11-21T07:23:21;27.48;;;16.17;;
27163;SDS011;14685;50.618;7.024;2023-11-21T07:25:49;27.05;;;16.17;;
27163;SDS011;14685;50.618;7.024;2023-11-21T07:28:16;28.35;;;17.38;;
27163;SDS011;14685;50.618;7.024;2023-11-21T07:30:46;31.40;;;18.27;;
27163;SDS011;14685;50.618;7.024;2023-11-21T07:33:13;30.10;;;16.23;;
27163;SDS011;14685;50.618;7.024;2023-11-21T07:35:40;27.80;;;15.63;;
27163;SDS011;14685;50.618;7.024;2023-11-21T07:38:07;27.85;;;16.63;;
27163;SDS011;14685;50.618;7.024;2023-11-21T07:40:34;28.85;;;17.10;;
27163;SDS011;14685;50.618;7.024;2023-11-21T07:43:01;29.85;;;16.58;;
27163;SDS011;14685;50.618;7.024;2023-11-21T07:45:33;28.50;;;15.95;;
27163;SDS011;14685;50.618;7.024;2023-11-21T07:48:00;28.63;;;14.65;;
27163;SDS011;14685;50.618;7.024;2023-11-21T07:50:31;29.05;;;15.30;;
27163;SDS011;14685;50.618;7.024;2023-11-21T07:52:59;28.85;;;16.33;;
27163;SDS011;14685;50.618;7.024;2023-11-21T07:55:26;28.23;;;15.65;;
27163;SDS011;14685;50.618;7.024;2023-11-21T07:57:53;32.65;;;15.07;;
27163;SDS011;14685;50.618;7.024;2023-11-21T08:00:20;29.70;;;14.90;;
27163;SDS011;14685;50.618;7.024;2023-11-21T08:02:47;28.42;;;16.73;;
27163;SDS011;14685;50.618;7.024;2023-11-21T08:05:14;28.27;;;15.93;;
27163;SDS011;14685;50.618;7.024;2023-11-21T08:07:53;26.67;;;14.73;;
27163;SDS011;14685;50.618;7.024;2023-11-21T08:10:20;29.70;;;17.02;;
27163;SDS011;14685;50.618;7.024;2023-11-21T08:12:48;34.00;;;17.60;;
27163;SDS011;14685;50.618;7.024;2023-11-21T08:15:16;34.20;;;18.75;;
27163;SDS011;14685;50.618;7.024;2023-11-21T08:17:43;35.20;;;17.10;;
27163;SDS011;14685;50.618;7.024;2023-11-21T08:20:10;35.85;;;19.38;;
27163;SDS011;14685;50.618;7.024;2023-11-21T08:22:39;30.20;;;15.98;;
27163;SDS011;14685;50.618;7.024;2023-11-21T08:25:07;38.58;;;20.02;;
27163;SDS011;14685;50.618;7.024;2023-11-21T08:27:40;34.92;;;17.52;;
27163;SDS011;14685;50.618;7.024;2023-11-21T08:30:12;32.47;;;17.92;;
27163;SDS011;14685;50.618;7.024;2023-11-21T08:32:40;37.38;;;19.27;;
27163;SDS011;14685;50.618;7.024;2023-11-21T08:35:07;36.38;;;19.02;;
27163;SDS011;14685;50.618;7.024;2023-11-21T08:37:36;43.30;;;20.15;;
27163;SDS011;14685;50.618;7.024;2023-11-21T08:40:05;40.75;;;22.27;;
27163;SDS011;14685;50.618;7.024;2023-11-21T08:42:35;37.47;;;19.20;;
27163;SDS011;14685;50.618;7.024;2023-11-21T08:45:03;47.10;;;23.90;;
27163;SDS011;14685;50.618;7.024;2023-11-21T08:47:30;45.58;;;20.48;;
27163;SDS011;14685;50.618;7.024;2023-11-21T08:49:58;32.22;;;18.73;;
27163;SDS011;14685;50.618;7.024;2023-11-21T08:52:25;35.13;;;19.30;;
27163;SDS011;14685;50.618;7.024;2023-11-21T08:54:52;32.28;;;18.05;;
27163;SDS011;14685;50.618;7.024;2023-11-21T08:57:23;34.30;;;18.35;;
27163;SDS011;14685;50.618;7.024;2023-11-21T08:59:50;36.28;;;19.27;;
27163;SDS011;14685;50.618;7.024;2023-11-21T09:02:22;34.70;;;19.23;;
27163;SDS011;14685;50.618;7.024;2023-11-21T09:04:50;33.08;;;19.63;;
27163;SDS011;14685;50.618;7.024;2023-11-21T09:07:19;42.85;;;21.35;;
27163;SDS011;14685;50.618;7.024;2023-11-21T09:09:49;37.72;;;19.23;;
27163;SDS011;14685;50.618;7.024;2023-11-21T09:12:17;38.33;;;19.90;;
27163;SDS011;14685;50.618;7.024;2023-11-21T09:14:45;37.45;;;21.27;;
27163;SDS011;14685;50.618;7.024;2023-11-21T09:17:13;36.00;;;21.02;;
27163;SDS011;14685;50.618;7.024;2023-11-21T09:19:41;39.17;;;20.75;;
27163;SDS011;14685;50.618;7.024;2023-11-21T09:22:10;35.17;;;20.13;;
27163;SDS011;14685;50.618;7.024;2023-11-21T09:24:37;39.22;;;20.42;;
27163;SDS011;14685;50.618;7.024;2023-11-21T09:27:05;37.38;;;18.70;;
27163;SDS011;14685;50.618;7.024;2023-11-21T09:29:33;35.72;;;20.77;;
27163;SDS011;14685;50.618;7.024;2023-11-21T09:31:59;39.78;;;20.08;;
27163;SDS011;14685;50.618;7.024;2023-11-21T09:34:27;39.00;;;20.67;;
27163;SDS011;14685;50.618;7.024;2023-11-21T09:36:54;36.33;;;19.95;;
27163;SDS011;14685;50.618;7.024;2023-11-21T09:39:22;35.38;;;19.08;;
27163;SDS011;14685;50.618;7.024;2023-11-21T09:41:51;34.10;;;19.73;;
27163;SDS011;14685;50.618;7.024;2023-11-21T09:44:30;35.25;;;20.13;;
27163;SDS011;14685;50.618;7.024;2023-11-21T09:47:03;34.70;;;19.80;;
27163;SDS011;14685;50.618;7.024;2023-11-21T09:49:30;32.92;;;18.75;;
27163;SDS011;14685;50.618;7.024;2023-11-21T09:52:01;30.10;;;18.25;;
27163;SDS011;14685;50.618;7.024;2023-11-21T09:54:30;31.02;;;16.95;;
27163;SDS011;14685;50.618;7.024;2023-11-21T09:57:01;30.92;;;18.10;;
27163;SDS011;14685;50.618;7.024;2023-11-21T09:59:30;29.63;;;17.10;;
27163;SDS011;14685;50.618;7.024;2023-11-21T10:02:00;31.70;;;17.73;;
27163;SDS011;14685;50.618;7.024;2023-11-21T10:04:29;37.50;;;19.05;;
27163;SDS011;14685;50.618;7.024;2023-11-21T10:06:57;35.25;;;19.58;;
27163;SDS011;14685;50.618;7.024;2023-11-21T10:09:24;33.65;;;18.30;;
27163;SDS011;14685;50.618;7.024;2023-11-21T10:11:53;38.13;;;18.38;;
27163;SDS011;14685;50.618;7.024;2023-11-21T10:14:23;30.27;;;17.60;;
27163;SDS011;14685;50.618;7.024;2023-11-21T10:16:52;36.28;;;18.60;;
27163;SDS011;14685;50.618;7.024;2023-11-21T10:19:19;31.52;;;17.10;;
27163;SDS011;14685;50.618;7.024;2023-11-21T10:21:48;33.10;;;16.42;;
27163;SDS011;14685;50.618;7.024;2023-11-21T10:24:15;32.58;;;17.38;;
27163;SDS011;14685;50.618;7.024;2023-11-21T10:26:43;38.58;;;19.30;;
27163;SDS011;14685;50.618;7.024;2023-11-21T10:29:19;31.73;;;17.90;;
27163;SDS011;14685;50.618;7.024;2023-11-21T10:31:49;34.80;;;18.63;;
27163;SDS011;14685;50.618;7.024;2023-11-21T10:34:18;36.13;;;18.17;;
27163;SDS011;14685;50.618;7.024;2023-11-21T10:36:45;35.17;;;18.63;;
27163;SDS011;14685;50.618;7.024;2023-11-21T10:39:16;30.80;;;17.75;;
27163;SDS011;14685;50.618;7.024;2023-11-21T10:41:46;34.00;;;17.88;;
27163;SDS011;14685;50.618;7.024;2023-11-21T10:44:15;36.88;;;19.45;;
27163;SDS011;14685;50.618;7.024;2023-11-21T10:46:50;31.88;;;16.98;;
27163;SDS011;14685;50.618;7.024;2023-11-21T10:49:20;32.47;;;16.95;;
27163;SDS011;14685;50.618;7.024;2023-11-21T10:51:48;33.00;;;17.52;;
27163;SDS011;14685;50.618;7.024;2023-11-21T10:54:21;37.47;;;20.05;;
27163;SDS011;14685;50.618;7.024;2023-11-21T10:56:50;37.03;;;19.17;;
27163;SDS011;14685;50.618;7.024;2023-11-21T10:59:23;35.30;;;18.17;;
27163;SDS011;14685;50.618;7.024;2023-11-21T11:01:51;32.13;;;18.48;;
27163;SDS011;14685;50.618;7.024;2023-11-21T11:04:22;28.40;;;17.45;;
27163;SDS011;14685;50.618;7.024;2023-11-21T11:07:01;33.47;;;16.80;;
27163;SDS011;14685;50.618;7.024;2023-11-21T11:09:31;31.38;;;17.63;;
27163;SDS011;14685;50.618;7.024;2023-11-21T11:12:01;30.10;;;17.00;;
27163;SDS011;14685;50.618;7.024;2023-11-21T11:14:31;30.63;;;16.63;;
27163;SDS011;14685;50.618;7.024;2023-11-21T11:16:59;29.35;;;16.98;;
27163;SDS011;14685;50.618;7.024;2023-11-21T11:19:28;26.83;;;14.88;;
27163;SDS011;14685;50.618;7.024;2023-11-21T11:22:00;27.08;;;15.95;;
27163;SDS011;14685;50.618;7.024;2023-11-21T11:27:40;28.20;;;15.57;;
27163;SDS011;14685;50.618;7.024;2023-11-21T11:33:08;28.70;;;15.05;;
27163;SDS011;14685;50.618;7.024;2023-11-21T11:36:04;32.67;;;17.00;;
27163;SDS011;14685;50.618;7.024;2023-11-21T11:38:35;31.67;;;17.50;;
27163;SDS011;14685;50.618;7.024;2023-11-21T11:41:03;32.05;;;16.60;;
27163;SDS011;14685;50.618;7.024;2023-11-21T11:43:31;28.73;;;16.90;;
27163;SDS011;14685;50.618;7.024;2023-11-21T11:46:11;31.10;;;15.27;;
27163;SDS011;14685;50.618;7.024;2023-11-21T11:48:41;28.15;;;16.10;;
27163;SDS011;14685;50.618;7.024;2023-11-21T11:51:12;27.90;;;15.70;;
27163;SDS011;14685;50.618;7.024;2023-11-21T11:53:41;31.15;;;15.65;;
27163;SDS011;14685;50.618;7.024;2023-11-21T11:56:22;27.35;;;15.93;;
27163;SDS011;14685;50.618;7.024;2023-11-21T11:58:53;30.15;;;16.42;;
27163;SDS011;14685;50.618;7.024;2023-11-21T12:01:22;35.28;;;17.05;;
27163;SDS011;14685;50.618;7.024;2023-11-21T12:06:41;35.95;;;16.90;;
27163;SDS011;14685;50.618;7.024;2023-11-21T12:09:17;31.17;;;15.38;;
27163;SDS011;14685;50.618;7.024;2023-11-21T12:11:48;26.38;;;16.35;;
27163;SDS011;14685;50.618;7.024;2023-11-21T12:14:15;28.70;;;15.98;;
27163;SDS011;14685;50.618;7.024;2023-11-21T12:16:44;30.77;;;17.13;;
27163;SDS011;14685;50.618;7.024;2023-11-21T12:19:11;33.38;;;16.48;;
27163;SDS011;14685;50.618;7.024;2023-11-21T12:21:39;30.52;;;16.58;;
27163;SDS011;14685;50.618;7.024;2023-11-21T12:24:10;31.02;;;16.80;;
27163;SDS011;14685;50.618;7.024;2023-11-21T12:26:41;35.20;;;17.45;;
27163;SDS011;14685;50.618;7.024;2023-11-21T12:29:10;27.55;;;16.70;;
27163;SDS011;14685;50.618;7.024;2023-11-21T12:31:37;33.45;;;18.08;;
27163;SDS011;14685;50.618;7.024;2023-11-21T12:34:05;32.33;;;16.92;;
27163;SDS011;14685;50.618;7.024;2023-11-21T12:36:33;38.67;;;18.45;;
27163;SDS011;14685;50.618;7.024;2023-11-21T12:39:01;28.20;;;16.77;;
27163;SDS011;14685;50.618;7.024;2023-11-21T12:41:30;31.60;;;16.17;;
27163;SDS011;14685;50.618;7.024;2023-11-21T12:43:57;37.63;;;18.75;;
27163;SDS011;14685;50.618;7.024;2023-11-21T12:46:25;28.88;;;16.40;;
27163;SDS011;14685;50.618;7.024;2023-11-21T12:48:57;33.97;;;17.80;;
27163;SDS011;14685;50.618;7.024;2023-11-21T12:51:24;29.83;;;15.93;;
27163;SDS011;14685;50.618;7.024;2023-11-21T12:53:52;31.58;;;16.60;;
27163;SDS011;14685;50.618;7.024;2023-11-21T12:56:21;34.25;;;17.30;;
27163;SDS011;14685;50.618;7.024;2023-11-21T12:58:50;31.75;;;17.27;;
27163;SDS011;14685;50.618;7.024;2023-11-21T13:01:26;32.97;;;16.73;;
27163;SDS011;14685;50.618;7.024;2023-11-21T13:06:28;32.65;;;17.50;;
27163;SDS011;14685;50.618;7.024;2023-11-21T13:09:00;31.05;;;16.17;;
27163;SDS011;14685;50.618;7.024;2023-11-21T13:11:27;35.25;;;17.35;;
27163;SDS011;14685;50.618;7.024;2023-11-21T13:13:58;33.10;;;17.75;;
27163;SDS011;14685;50.618;7.024;2023-11-21T13:16:27;33.63;;;18.70;;
27163;SDS011;14685;50.618;7.024;2023-11-21T13:18:54;38.40;;;19.60;;
27163;SDS011;14685;50.618;7.024;2023-11-21T13:21:21;35.65;;;18.38;;
27163;SDS011;14685;50.618;7.024;2023-11-21T13:23:48;35.42;;;18.55;;
27163;SDS011;14685;50.618;7.024;2023-11-21T13:26:18;34.85;;;18.40;;
27163;SDS011;14685;50.618;7.024;2023-11-21T13:28:47;35.65;;;17.92;;
27163;SDS011;14685;50.618;7.024;2023-11-21T13:31:15;37.22;;;19.17;;
27163;SDS011;14685;50.618;7.024;2023-11-21T13:36:23;26.75;;;14.32;;
27163;SDS011;14685;50.618;7.024;2023-11-21T13:38:52;35.78;;;16.75;;
27163;SDS011;14685;50.618;7.024;2023-11-21T13:41:20;35.75;;;16.42;;
27163;SDS011;14685;50.618;7.024;2023-11-21T13:43:54;28.80;;;15.10;;
27163;SDS011;14685;50.618;7.024;2023-11-21T13:46:30;34.55;;;16.00;;
27163;SDS011;14685;50.618;7.024;2023-11-21T13:49:04;39.20;;;17.60;;
27163;SDS011;14685;50.618;7.024;2023-11-21T13:51:36;31.20;;;17.35;;
27163;SDS011;14685;50.618;7.024;2023-11-21T13:54:09;30.63;;;15.60;;
27163;SDS011;14685;50.618;7.024;2023-11-21T13:56:37;31.98;;;17.88;;
27163;SDS011;14685;50.618;7.024;2023-11-21T13:59:07;29.88;;;16.63;;
27163;SDS011;14685;50.618;7.024;2023-11-21T14:01:48;27.58;;;16.05;;
27163;SDS011;14685;50.618;7.024;2023-11-21T14:04:18;28.13;;;15.98;;
27163;SDS011;14685;50.618;7.024;2023-11-21T14:06:48;28.83;;;15.05;;
27163;SDS011;14685;50.618;7.024;2023-11-21T14:09:17;30.15;;;15.75;;
27163;SDS011;14685;50.618;7.024;2023-11-21T14:11:52;26.48;;;14.73;;
27163;SDS011;14685;50.618;7.024;2023-11-21T14:14:21;30.27;;;16.25;;
27163;SDS011;14685;50.618;7.024;2023-11-21T14:16:50;32.65;;;14.60;;
27163;SDS011;14685;50.618;7.024;2023-11-21T14:19:18;31.10;;;15.15;;
27163;SDS011;14685;50.618;7.024;2023-11-21T14:21:46;31.08;;;14.70;;
27163;SDS011;14685;50.618;7.024;2023-11-21T14:24:15;25.60;;;14.43;;
27163;SDS011;14685;50.618;7.024;2023-11-21T14:26:45;23.25;;;14.57;;
27163;SDS011;14685;50.618;7.024;2023-11-21T14:29:17;27.60;;;14.20;;
27163;SDS011;14685;50.618;7.024;2023-11-21T14:31:49;31.33;;;15.13;;
27163;SDS011;14685;50.618;7.024;2023-11-21T14:34:18;31.80;;;15.82;;
27163;SDS011;14685;50.618;7.024;2023-11-21T14:36:48;28.20;;;13.55;;
27163;SDS011;14685;50.618;7.024;2023-11-21T14:39:16;32.05;;;15.68;;
27163;SDS011;14685;50.618;7.024;2023-11-21T14:44:19;29.73;;;15.38;;
27163;SDS011;14685;50.618;7.024;2023-11-21T14:46:50;32.55;;;16.20;;